createdAt,value
2024-03-12T00:02:01.952Z,101240.41
2024-03-12T00:04:30.266Z,101244.06
2024-03-12T00:06:58.711Z,101232.72
2024-03-12T00:09:28.280Z,101230.38
2024-03-12T00:11:56.389Z,101231.34
2024-03-12T00:14:25.728Z,101221.81
2024-03-12T00:16:53.704Z,101209.66
2024-03-12T00:19:22.104Z,101214.69
2024-03-12T00:21:50.810Z,101207.69
2024-03-12T00:24:19.332Z,101200.41
2024-03-12T00:26:48.992Z,101205.72
2024-03-12T00:29:18.522Z,101200.28
2024-03-12T00:31:47.940Z,101200.41
2024-03-12T00:34:16.196Z,101193.41
2024-03-12T00:36:45.204Z,101184.59
2024-03-12T00:39:13.343Z,101184.47
2024-03-12T00:41:41.289Z,101174.69
2024-03-12T00:44:09.858Z,101168.38
2024-03-12T00:46:38.056Z,101172.59
2024-03-12T00:49:07.784Z,101161.94
2024-03-12T00:51:35.960Z,101162.63
2024-03-12T00:54:05.304Z,101158.28
2024-03-12T00:56:34.216Z,101153.97
2024-03-12T00:59:02.944Z,101155.63
2024-03-12T01:01:31.566Z,101146.00
2024-03-12T01:03:59.841Z,101147.66
2024-03-12T01:06:29.914Z,101150.31
2024-03-12T01:08:58.008Z,101141.34
2024-03-12T01:11:26.068Z,101142.94
2024-03-12T01:13:55.378Z,101123.22
2024-03-12T01:16:23.442Z,101128.22
2024-03-12T01:18:51.558Z,101121.22
2024-03-12T01:21:20.977Z,101130.03
2024-03-12T01:23:50.477Z,101128.22
2024-03-12T01:26:18.501Z,101110.84
2024-03-12T01:28:47.183Z,101117.69
2024-03-12T01:31:16.444Z,101111.66
2024-03-12T01:33:44.730Z,101111.00
2024-03-12T01:36:21.813Z,101098.69
2024-03-12T01:38:55.707Z,101098.28
2024-03-12T01:41:24.303Z,101095.34
2024-03-12T01:44:00.449Z,101098.00
2024-03-12T01:46:30.070Z,101096.03
2024-03-12T01:48:59.744Z,101092.22
2024-03-12T01:51:28.376Z,101090.25
2024-03-12T01:53:57.813Z,101072.34
2024-03-12T01:56:26.283Z,101076.69
2024-03-12T01:58:54.324Z,101071.19
2024-03-12T02:01:22.670Z,101073.84
2024-03-12T02:03:53.384Z,101072.72
2024-03-12T02:06:21.788Z,101060.97
2024-03-12T02:08:49.745Z,101063.31
2024-03-12T02:11:19.267Z,101058.69
2024-03-12T02:13:47.301Z,101056.72
2024-03-12T02:16:15.344Z,101052.06
2024-03-12T02:18:43.370Z,101052.78
2024-03-12T02:21:11.358Z,101038.50
2024-03-12T02:23:42.957Z,101037.78
2024-03-12T02:26:11.655Z,101033.47
2024-03-12T02:28:39.648Z,101029.81
2024-03-12T02:31:08.314Z,101023.66
2024-03-12T02:33:36.668Z,101026.88
2024-03-12T02:36:06.341Z,101017.22
2024-03-12T02:38:37.798Z,101007.94
2024-03-12T02:41:08.228Z,101018.28
2024-03-12T02:43:37.681Z,101011.66
2024-03-12T02:46:05.823Z,101001.72
2024-03-12T02:48:33.903Z,100990.78
2024-03-12T02:51:02.591Z,100987.13
2024-03-12T02:53:30.666Z,100990.78
2024-03-12T02:55:58.680Z,100974.41
2024-03-12T02:58:28.031Z,100974.41
2024-03-12T03:00:56.918Z,100975.13
2024-03-12T03:03:24.962Z,100963.47
2024-03-12T03:05:54.052Z,100959.47
2024-03-12T03:08:22.195Z,100954.72
2024-03-12T03:10:50.256Z,100954.16
2024-03-12T03:13:18.302Z,100941.69
2024-03-12T03:15:48.049Z,100942.34
2024-03-12T03:18:16.451Z,100933.25
2024-03-12T03:20:44.932Z,100935.75
2024-03-12T03:23:13.018Z,100929.28
2024-03-12T03:25:41.022Z,100917.97
2024-03-12T03:28:09.871Z,100923.66
2024-03-12T03:30:37.878Z,100919.63
2024-03-12T03:33:09.411Z,100921.28
2024-03-12T03:35:37.450Z,100911.19
2024-03-12T03:38:07.202Z,100914.84
2024-03-12T03:40:35.220Z,100909.50
2024-03-12T03:43:03.227Z,100907.84
2024-03-12T03:45:31.306Z,100921.28
2024-03-12T03:47:59.852Z,100907.31
2024-03-12T03:50:29.405Z,100910.97
2024-03-12T03:52:57.459Z,100911.47
2024-03-12T03:55:25.499Z,100909.38
2024-03-12T03:57:53.687Z,100905.09
2024-03-12T04:00:24.502Z,100894.50
2024-03-12T04:02:52.730Z,100902.56
2024-03-12T04:05:21.458Z,100904.19
2024-03-12T04:07:50.956Z,100898.28
2024-03-12T04:10:19.039Z,100894.00
2024-03-12T04:12:47.274Z,100914.44
2024-03-12T04:15:15.425Z,100898.00
2024-03-12T04:17:45.539Z,100903.31
2024-03-12T04:20:14.406Z,100897.94
2024-03-12T04:22:45.303Z,100902.28
2024-03-12T04:25:14.907Z,100896.81
2024-03-12T04:27:43.064Z,100914.31
2024-03-12T04:30:12.210Z,100917.66
2024-03-12T04:32:40.471Z,100925.59
2024-03-12T04:35:11.019Z,100922.78
2024-03-12T04:37:40.050Z,100919.66
2024-03-12T04:40:09.891Z,100897.84
2024-03-12T04:42:40.105Z,100917.00
2024-03-12T04:45:09.745Z,100921.19
2024-03-12T04:47:39.044Z,100906.72
2024-03-12T04:50:09.400Z,100913.69
2024-03-12T04:52:37.722Z,100913.25
2024-03-12T04:55:07.144Z,100908.16
2024-03-12T04:57:36.701Z,100914.53
2024-03-12T05:00:15.170Z,100923.34
2024-03-12T05:02:44.192Z,100930.34
2024-03-12T05:05:15.196Z,100919.34
2024-03-12T05:07:43.513Z,100923.34
2024-03-12T05:10:12.878Z,100917.88
2024-03-12T05:12:41.813Z,100921.47
2024-03-12T05:15:11.587Z,100922.59
2024-03-12T05:17:40.788Z,100917.47
2024-03-12T05:20:10.733Z,100906.38
2024-03-12T05:22:39.060Z,100906.63
2024-03-12T05:25:10.881Z,100906.47
2024-03-12T05:27:40.006Z,100919.47
2024-03-12T05:30:11.690Z,100914.66
2024-03-12T05:32:45.268Z,100917.31
2024-03-12T05:35:18.658Z,100914.66
2024-03-12T05:38:00.504Z,100921.97
2024-03-12T05:40:31.305Z,100923.09
2024-03-12T05:43:16.632Z,100922.28
2024-03-12T05:46:02.697Z,100921.09
2024-03-12T05:48:32.158Z,100925.94
2024-03-12T05:51:00.710Z,100919.28
2024-03-12T05:53:28.701Z,100918.44
2024-03-12T05:55:56.985Z,100937.44
2024-03-12T05:58:26.611Z,100933.59
2024-03-12T06:00:55.116Z,100935.75
2024-03-12T06:03:23.147Z,100933.78
2024-03-12T06:05:52.644Z,100931.91
2024-03-12T06:08:21.146Z,100930.97
2024-03-12T06:10:49.225Z,100945.97
2024-03-12T06:13:17.300Z,100941.72
2024-03-12T06:15:46.514Z,100933.25
2024-03-12T06:18:14.887Z,100947.78
2024-03-12T06:20:47.116Z,100944.75
2024-03-12T06:23:16.879Z,100939.78
2024-03-12T06:25:47.926Z,100950.66
2024-03-12T06:28:16.483Z,100952.28
2024-03-12T06:30:45.282Z,100953.56
2024-03-12T06:33:18.228Z,100946.13
2024-03-12T06:35:48.560Z,100935.75
2024-03-12T06:38:21.442Z,100946.13
2024-03-12T06:40:49.876Z,100946.13
2024-03-12T06:43:19.238Z,100934.47
2024-03-12T06:45:48.180Z,100940.78
2024-03-12T06:48:19.606Z,100949.22
2024-03-12T06:50:48.007Z,100960.09
2024-03-12T06:53:17.428Z,100963.09
2024-03-12T06:55:47.044Z,100965.94
2024-03-12T06:58:20.226Z,100967.56
2024-03-12T07:00:49.552Z,100958.94
2024-03-12T07:03:19.954Z,100961.06
2024-03-12T07:05:49.743Z,100964.06
2024-03-12T07:08:19.577Z,100963.78
2024-03-12T07:10:47.886Z,100958.75
2024-03-12T07:13:16.199Z,100962.03
2024-03-12T07:15:46.350Z,100962.09
2024-03-12T07:18:15.594Z,100957.41
2024-03-12T07:20:45.461Z,100969.91
2024-03-12T07:23:15.171Z,100964.13
2024-03-12T07:25:44.757Z,100951.75
2024-03-12T07:28:14.097Z,100970.25
2024-03-12T07:30:42.437Z,100972.06
2024-03-12T07:33:11.094Z,100971.56
2024-03-12T07:35:39.144Z,100960.78
2024-03-12T07:38:07.596Z,100962.09
2024-03-12T07:40:36.781Z,100961.75
2024-03-12T07:43:07.308Z,100981.41
2024-03-12T07:45:37.624Z,100965.91
2024-03-12T07:48:06.999Z,100979.91
2024-03-12T07:50:36.033Z,100971.28
2024-03-12T07:53:06.956Z,100970.75
2024-03-12T07:55:36.543Z,100976.59
2024-03-12T07:58:06.283Z,100978.06
2024-03-12T08:00:34.900Z,100978.28
2024-03-12T08:03:03.782Z,100978.13
2024-03-12T08:05:34.979Z,100974.28
2024-03-12T08:08:06.185Z,100976.59
2024-03-12T08:10:34.329Z,100965.09
2024-03-12T08:13:03.052Z,100991.44
2024-03-12T08:15:32.548Z,100986.78
2024-03-12T08:18:09.972Z,100977.09
2024-03-12T08:20:47.252Z,100986.47
2024-03-12T08:23:15.975Z,100986.41
2024-03-12T08:25:55.004Z,100986.78
2024-03-12T08:28:27.814Z,100999.38
2024-03-12T08:31:02.524Z,100981.09
2024-03-12T08:33:36.432Z,100996.16
2024-03-12T08:36:05.161Z,100993.84
2024-03-12T08:38:33.238Z,100999.31
2024-03-12T08:41:01.274Z,101007.19
2024-03-12T08:43:29.469Z,101012.00
2024-03-12T08:45:59.890Z,101000.50
2024-03-12T08:48:31.264Z,101007.84
2024-03-12T08:50:59.327Z,101000.78
2024-03-12T08:53:27.582Z,101001.19
2024-03-12T08:55:56.057Z,101000.19
2024-03-12T08:58:24.318Z,101014.22
2024-03-12T09:00:52.826Z,101019.38
2024-03-12T09:03:22.609Z,101021.91
2024-03-12T09:05:51.359Z,101027.88
2024-03-12T09:08:19.656Z,101033.38
2024-03-12T09:10:48.911Z,101024.66
2024-03-12T09:13:20.209Z,101046.47
2024-03-12T09:15:49.636Z,101060.78
2024-03-12T09:18:24.763Z,101044.34
2024-03-12T09:20:57.934Z,101046.69
2024-03-12T09:23:30.241Z,101048.56
2024-03-12T09:25:58.857Z,101044.91
2024-03-12T09:28:28.299Z,101039.88
2024-03-12T09:30:57.106Z,101054.22
2024-03-12T09:33:26.653Z,101052.41
2024-03-12T09:35:56.258Z,101056.56
2024-03-12T09:38:24.638Z,101071.25
2024-03-12T09:40:53.494Z,101075.97
2024-03-12T09:43:22.296Z,101070.63
2024-03-12T09:45:50.453Z,101075.56
2024-03-12T09:48:18.527Z,101090.59
2024-03-12T09:50:46.600Z,101080.91
2024-03-12T09:53:16.183Z,101083.41
2024-03-12T09:55:45.960Z,101089.94
2024-03-12T09:58:14.166Z,101093.00
2024-03-12T10:00:42.545Z,101093.84
2024-03-12T10:03:10.974Z,101089.34
2024-03-12T10:05:41.424Z,101087.25
2024-03-12T10:08:14.352Z,101087.31
2024-03-12T10:10:45.033Z,101096.84
2024-03-12T10:13:22.313Z,101090.03
2024-03-12T10:15:52.879Z,101083.69
2024-03-12T10:18:20.241Z,101084.06
2024-03-12T10:20:49.188Z,101045.69
2024-03-12T10:23:17.672Z,101071.75
2024-03-12T10:25:47.201Z,101085.75
2024-03-12T10:28:16.606Z,101094.94
2024-03-12T10:30:46.980Z,101100.44
2024-03-12T10:33:18.178Z,101097.81
2024-03-12T10:35:46.690Z,101104.34
2024-03-12T10:38:15.626Z,101107.34
2024-03-12T10:40:43.881Z,101098.47
2024-03-12T10:43:13.418Z,101107.69
2024-03-12T10:45:41.845Z,101112.56
2024-03-12T10:48:12.307Z,101108.50
2024-03-12T10:50:42.253Z,101091.13
2024-03-12T10:53:13.242Z,101125.34
2024-03-12T10:55:43.064Z,101101.16
2024-03-12T10:58:12.963Z,101110.91
2024-03-12T11:00:41.709Z,101109.75
2024-03-12T11:03:14.676Z,101108.50
2024-03-12T11:05:43.486Z,101112.19
2024-03-12T11:08:11.710Z,101095.84
2024-03-12T11:13:14.526Z,101098.16
2024-03-12T11:15:43.905Z,101110.91
2024-03-12T11:18:12.297Z,101114.91
2024-03-12T11:20:40.838Z,101110.13
2024-03-12T11:23:11.817Z,101112.22
2024-03-12T11:25:49.809Z,101118.44
2024-03-12T11:28:21.845Z,101119.63
2024-03-12T11:30:50.657Z,101122.94
2024-03-12T11:33:54.271Z,101120.47
2024-03-12T11:36:24.177Z,101126.81
2024-03-12T11:38:52.992Z,101127.50
2024-03-12T11:41:24.229Z,101130.28
2024-03-12T11:43:54.274Z,101137.03
2024-03-12T11:46:43.233Z,101131.22
2024-03-12T11:49:33.728Z,101121.38
2024-03-12T11:52:01.980Z,101144.75
2024-03-12T11:54:44.199Z,101155.09
2024-03-12T11:57:20.992Z,101160.47
2024-03-12T11:59:50.770Z,101168.13
2024-03-12T12:02:21.618Z,101154.44
2024-03-12T12:04:52.598Z,101152.63
2024-03-12T12:07:23.459Z,101153.31
2024-03-12T12:09:52.892Z,101155.16
2024-03-12T12:12:21.181Z,101159.50
2024-03-12T12:14:51.114Z,101156.19
2024-03-12T12:17:22.928Z,101152.50
2024-03-12T12:20:14.970Z,101174.56
2024-03-12T12:22:46.507Z,101132.81
2024-03-12T12:25:17.318Z,101167.94
2024-03-12T12:27:45.518Z,101162.91
2024-03-12T12:30:16.880Z,101159.88
2024-03-12T12:32:45.599Z,101173.72
2024-03-12T12:35:15.572Z,101172.41
2024-03-12T12:37:46.002Z,101175.88
2024-03-12T12:40:18.076Z,101181.75
2024-03-12T12:42:47.637Z,101183.56
2024-03-12T12:45:17.576Z,101184.56
2024-03-12T12:47:51.171Z,101192.91
2024-03-12T12:50:29.729Z,101181.41
2024-03-12T12:53:00.379Z,101188.59
2024-03-12T12:55:28.973Z,101189.97
2024-03-12T12:58:01.044Z,101174.94
2024-03-12T13:00:31.692Z,101175.13
2024-03-12T13:03:13.298Z,101182.81
2024-03-12T13:05:42.756Z,101179.97
2024-03-12T13:08:26.392Z,101196.34
2024-03-12T13:11:06.037Z,101188.16
2024-03-12T13:13:35.172Z,101183.31
2024-03-12T13:16:20.303Z,101180.28
2024-03-12T13:18:51.953Z,101183.63
2024-03-12T13:21:23.183Z,101169.09
2024-03-12T13:23:51.625Z,101162.59
2024-03-12T13:26:20.672Z,101176.28
2024-03-12T13:28:49.641Z,101169.28
2024-03-12T13:31:19.361Z,101178.44
2024-03-12T13:33:48.278Z,101174.63
2024-03-12T13:36:18.701Z,101156.94
2024-03-12T13:38:47.916Z,101139.88
2024-03-12T13:41:19.532Z,101178.13
2024-03-12T13:43:58.818Z,101154.91
2024-03-12T13:46:29.499Z,101162.56
2024-03-12T13:49:10.653Z,101170.28
2024-03-12T13:51:39.126Z,101161.94
2024-03-12T13:54:09.317Z,101155.91
2024-03-12T13:56:37.791Z,101153.22
2024-03-12T13:59:06.350Z,101162.59
2024-03-12T14:01:36.495Z,101178.47
2024-03-12T14:04:05.631Z,101160.94
2024-03-12T14:06:35.060Z,101186.47
2024-03-12T14:09:06.169Z,101174.94
2024-03-12T14:11:34.270Z,101171.94
2024-03-12T14:14:03.695Z,101176.97
2024-03-12T14:16:31.792Z,101174.78
2024-03-12T14:19:01.230Z,101191.34
2024-03-12T14:21:30.150Z,101183.31
2024-03-12T14:23:58.890Z,101178.66
2024-03-12T14:26:27.378Z,101176.28
2024-03-12T14:28:56.214Z,101187.34
2024-03-12T14:31:24.577Z,101190.09
2024-03-12T14:33:53.179Z,101187.09
2024-03-12T14:36:22.655Z,101200.94
2024-03-12T14:38:54.312Z,101211.47
2024-03-12T14:41:23.647Z,101182.56
2024-03-12T14:43:51.963Z,101190.94
2024-03-12T14:46:20.671Z,101191.44
2024-03-12T14:48:49.765Z,101199.09
2024-03-12T14:51:17.898Z,101192.44
2024-03-12T14:53:47.920Z,101202.28
2024-03-12T14:56:17.692Z,101200.25
2024-03-12T14:58:46.074Z,101208.59
2024-03-12T15:01:14.850Z,101200.94
2024-03-12T15:03:43.344Z,101202.25
2024-03-12T15:06:11.802Z,101198.59
2024-03-12T15:08:40.087Z,101208.63
2024-03-12T15:11:09.631Z,101205.34
2024-03-12T15:13:38.143Z,101210.69
2024-03-12T15:16:09.975Z,101207.88
2024-03-12T15:18:40.352Z,101221.06
2024-03-12T15:21:08.557Z,101197.69
2024-03-12T15:23:36.888Z,101211.34
2024-03-12T15:26:06.422Z,101221.72
2024-03-12T15:28:36.948Z,101206.97
2024-03-12T15:31:05.790Z,101217.66
2024-03-12T15:33:35.250Z,101215.00
2024-03-12T15:36:04.979Z,101216.69
2024-03-12T15:38:34.140Z,101202.13
2024-03-12T15:41:02.322Z,101216.50
2024-03-12T15:43:30.545Z,101212.31
2024-03-12T15:46:00.169Z,101217.66
2024-03-12T15:48:28.378Z,101204.59
2024-03-12T15:50:56.578Z,101207.53
2024-03-12T15:53:24.709Z,101217.94
2024-03-12T15:55:54.917Z,101216.56
2024-03-12T15:58:27.069Z,101216.06
2024-03-12T16:00:55.714Z,101220.69
2024-03-12T16:03:25.007Z,101213.22
2024-03-12T16:05:54.050Z,101211.66
2024-03-12T16:08:22.115Z,101231.72
2024-03-12T16:10:52.922Z,101219.22
2024-03-12T16:13:22.519Z,101237.06
2024-03-12T16:15:51.268Z,101231.19
2024-03-12T16:18:19.354Z,101224.81
2024-03-12T16:20:49.019Z,101231.66
2024-03-12T16:23:18.619Z,101234.47
2024-03-12T16:25:47.127Z,101243.13
2024-03-12T16:28:15.324Z,101236.06
2024-03-12T16:30:43.646Z,101241.72
2024-03-12T16:33:14.245Z,101231.34
2024-03-12T16:35:42.502Z,101240.69
2024-03-12T16:38:14.036Z,101231.16
2024-03-12T16:40:42.361Z,101242.66
2024-03-12T16:43:10.493Z,101237.63
2024-03-12T16:45:38.593Z,101244.66
2024-03-12T16:48:09.692Z,101259.50
2024-03-12T16:50:37.881Z,101249.16
2024-03-12T16:53:05.941Z,101246.31
2024-03-12T16:55:36.178Z,101254.66
2024-03-12T16:58:05.121Z,101255.66
2024-03-12T17:00:38.807Z,101260.41
2024-03-12T17:03:07.844Z,101265.47
2024-03-12T17:05:37.304Z,101261.97
2024-03-12T17:08:05.771Z,101256.25
2024-03-12T17:10:37.017Z,101255.72
2024-03-12T17:13:06.021Z,101259.91
2024-03-12T17:15:35.121Z,101275.06
2024-03-12T17:18:05.073Z,101262.56
2024-03-12T17:20:35.259Z,101262.56
2024-03-12T17:23:05.508Z,101255.03
2024-03-12T17:25:35.697Z,101256.84
2024-03-12T17:28:05.115Z,101262.88
2024-03-12T17:30:33.880Z,101261.53
2024-03-12T17:33:02.742Z,101274.53
2024-03-12T17:35:32.323Z,101272.84
2024-03-12T17:38:02.232Z,101276.22
2024-03-12T17:40:33.719Z,101275.91
2024-03-12T17:43:04.024Z,101277.88
2024-03-12T17:45:32.908Z,101281.53
2024-03-12T17:48:02.199Z,101283.22
2024-03-12T17:50:31.737Z,101282.38
2024-03-12T17:53:00.595Z,101285.19
2024-03-12T17:55:29.769Z,101276.53
2024-03-12T17:57:58.207Z,101280.50
2024-03-12T18:00:28.041Z,101282.66
2024-03-12T18:02:57.775Z,101283.09
2024-03-12T18:05:27.760Z,101298.09
2024-03-12T18:07:56.339Z,101291.41
2024-03-12T18:10:27.385Z,101300.78
2024-03-12T18:12:56.282Z,101301.41
2024-03-12T18:15:24.921Z,101299.09
2024-03-12T18:17:54.652Z,101299.41
2024-03-12T18:20:25.787Z,101299.72
2024-03-12T18:22:54.381Z,101289.06
2024-03-12T18:25:22.875Z,101295.22
2024-03-12T18:27:54.627Z,101295.69
2024-03-12T18:30:23.333Z,101296.84
2024-03-12T18:32:51.377Z,101309.03
2024-03-12T18:35:21.048Z,101302.47
2024-03-12T18:37:49.145Z,101307.50
2024-03-12T18:40:19.961Z,101316.34
2024-03-12T18:42:49.367Z,101312.97
2024-03-12T18:45:19.346Z,101307.97
2024-03-12T18:47:49.245Z,101320.00
2024-03-12T18:50:18.284Z,101304.00
2024-03-12T18:52:48.681Z,101311.69
2024-03-12T18:55:18.342Z,101312.69
2024-03-12T18:57:47.265Z,101312.69
2024-03-12T19:00:19.413Z,101312.13
2024-03-12T19:02:48.587Z,101327.00
2024-03-12T19:05:18.310Z,101317.88
2024-03-12T19:07:50.201Z,101313.31
2024-03-12T19:10:19.807Z,101323.63
2024-03-12T19:12:48.706Z,101321.13
2024-03-12T19:15:22.093Z,101320.81
2024-03-12T19:18:02.094Z,101323.63
2024-03-12T19:20:30.950Z,101324.47
2024-03-12T19:23:00.948Z,101323.34
2024-03-12T19:25:29.027Z,101324.03
2024-03-12T19:27:57.248Z,101326.16
2024-03-12T19:30:26.335Z,101321.38
2024-03-12T19:32:56.130Z,101328.97
2024-03-12T19:35:24.714Z,101329.91
2024-03-12T19:37:54.117Z,101327.22
2024-03-12T19:40:24.599Z,101325.31
2024-03-12T19:42:55.990Z,101332.03
2024-03-12T19:45:26.876Z,101340.56
2024-03-12T19:47:57.290Z,101331.72
2024-03-12T19:50:26.888Z,101343.59
2024-03-12T19:52:56.244Z,101344.84
2024-03-12T19:55:26.954Z,101334.16
2024-03-12T19:57:56.644Z,101335.81
2024-03-12T20:00:26.799Z,101343.31
2024-03-12T20:02:55.709Z,101341.47
2024-03-12T20:05:23.823Z,101334.47
2024-03-12T20:07:52.393Z,101342.81
2024-03-12T20:10:21.531Z,101348.16
2024-03-12T20:12:56.490Z,101341.00
2024-03-12T20:15:25.195Z,101344.66
2024-03-12T20:17:53.656Z,101342.81
2024-03-12T20:20:24.266Z,101341.16
2024-03-12T20:22:53.544Z,101335.81
2024-03-12T20:25:22.943Z,101335.53
2024-03-12T20:27:55.256Z,101337.50
2024-03-12T20:30:28.416Z,101341.47
2024-03-12T20:32:59.986Z,101332.16
2024-03-12T20:35:31.480Z,101341.16
2024-03-12T20:37:59.686Z,101329.91
2024-03-12T20:40:28.730Z,101340.00
2024-03-12T20:43:00.609Z,101339.50
2024-03-12T20:45:30.059Z,101338.88
2024-03-12T20:47:59.127Z,101337.72
2024-03-12T20:50:27.449Z,101353.72
2024-03-12T20:52:56.876Z,101345.91
2024-03-12T20:55:25.739Z,101333.22
2024-03-12T20:57:53.929Z,101336.88
2024-03-12T21:00:29.466Z,101338.56
2024-03-12T21:02:57.779Z,101339.94
2024-03-12T21:05:28.233Z,101325.06
2024-03-12T21:07:56.398Z,101331.94
2024-03-12T21:10:24.604Z,101336.28
2024-03-12T21:12:53.870Z,101342.47
2024-03-12T21:15:23.711Z,101329.91
2024-03-12T21:17:51.972Z,101340.59
2024-03-12T21:20:25.504Z,101346.63
2024-03-12T21:22:53.829Z,101343.28
2024-03-12T21:25:22.179Z,101337.94
2024-03-12T21:27:50.332Z,101347.25
2024-03-12T21:30:20.259Z,101338.13
2024-03-12T21:32:51.098Z,101329.06
2024-03-12T21:35:19.212Z,101334.91
2024-03-12T21:37:47.523Z,101325.38
2024-03-12T21:40:17.351Z,101329.91
2024-03-12T21:42:45.822Z,101338.56
2024-03-12T21:45:16.583Z,101334.16
2024-03-12T21:47:47.084Z,101337.63
2024-03-12T21:50:18.466Z,101344.84
2024-03-12T21:52:47.073Z,101328.66
2024-03-12T21:55:15.485Z,101331.78
2024-03-12T21:57:44.845Z,101330.13
2024-03-12T22:00:19.985Z,101337.97
2024-03-12T22:02:49.135Z,101324.94
2024-03-12T22:05:21.196Z,101341.78
2024-03-12T22:07:51.156Z,101336.13
2024-03-12T22:10:19.725Z,101334.81
2024-03-12T22:12:47.975Z,101332.16
2024-03-12T22:15:16.905Z,101332.72
2024-03-12T22:17:45.813Z,101333.53
2024-03-12T22:20:16.341Z,101339.19
2024-03-12T22:22:46.981Z,101341.16
2024-03-12T22:25:15.263Z,101327.53
2024-03-12T22:27:43.838Z,101329.91
2024-03-12T22:30:12.556Z,101347.88
2024-03-12T22:32:43.374Z,101352.88
2024-03-12T22:35:11.752Z,101341.00
2024-03-12T22:37:40.351Z,101345.91
2024-03-12T22:40:13.503Z,101348.38
2024-03-12T22:42:42.282Z,101337.19
2024-03-12T22:45:12.595Z,101337.19
2024-03-12T22:47:41.680Z,101330.69
2024-03-12T22:50:10.893Z,101340.94
2024-03-12T22:52:39.350Z,101345.56
2024-03-12T22:55:09.821Z,101345.41
2024-03-12T22:57:39.913Z,101327.44
2024-03-12T23:00:24.536Z,101336.94
2024-03-12T23:02:53.092Z,101345.56
2024-03-12T23:05:21.985Z,101346.63
2024-03-12T23:07:50.678Z,101344.94
2024-03-12T23:10:22.716Z,101345.28
2024-03-12T23:12:51.074Z,101330.63
2024-03-12T23:15:19.772Z,101338.56
2024-03-12T23:17:49.766Z,101332.09
2024-03-12T23:20:17.961Z,101333.91
2024-03-12T23:22:46.245Z,101333.22
2024-03-12T23:25:14.642Z,101331.53
2024-03-12T23:27:44.222Z,101339.19
2024-03-12T23:30:14.024Z,101342.16
2024-03-12T23:32:43.218Z,101335.81
2024-03-12T23:35:11.379Z,101337.81
2024-03-12T23:37:39.880Z,101331.19
2024-03-12T23:40:09.075Z,101334.94
2024-03-12T23:42:37.103Z,101331.88
2024-03-12T23:45:09.813Z,101333.75
2024-03-12T23:47:37.911Z,101322.13
2024-03-12T23:50:08.760Z,101321.59
2024-03-12T23:52:37.527Z,101314.03
2024-03-12T23:55:06.649Z,101311.63
2024-03-12T23:57:35.458Z,101317.19
